sensor_id;sensor_type;location;lat;lon;timestamp;temperature;humidity
28608;DHT22;15802;45.654;13.804;2023-06-14T00:00:38;20.40;99.90
28608;DHT22;15802;45.654;13.804;2023-06-14T00:03:06;20.40;99.90
28608;DHT22;15802;45.654;13.804;2023-06-14T00:05:33;20.30;99.90
28608;DHT22;15802;45.654;13.804;2023-06-14T00:08:06;20.40;99.90
28608;DHT22;15802;45.654;13.804;2023-06-14T00:10:33;20.40;99.90
28608;DHT22;15802;45.654;13.804;2023-06-14T00:13:01;20.40;99.90
28608;DHT22;15802;45.654;13.804;2023-06-14T00:15:26;20.40;99.90
28608;DHT22;15802;45.654;13.804;2023-06-14T00:17:53;20.40;99.90
28608;DHT22;15802;45.654;13.804;2023-06-14T00:20:20;20.40;99.90
28608;DHT22;15802;45.654;13.804;2023-06-14T00:22:46;20.40;99.90
28608;DHT22;15802;45.654;13.804;2023-06-14T00:25:13;20.40;99.90
28608;DHT22;15802;45.654;13.804;2023-06-14T00:27:39;20.40;99.90
28608;DHT22;15802;45.654;13.804;2023-06-14T00:30:04;20.40;99.90
28608;DHT22;15802;45.654;13.804;2023-06-14T00:32:30;20.40;99.90
28608;DHT22;15802;45.654;13.804;2023-06-14T00:34:56;20.40;99.90
28608;DHT22;15802;45.654;13.804;2023-06-14T00:37:22;20.40;99.90
28608;DHT22;15802;45.654;13.804;2023-06-14T00:39:48;20.40;99.90
28608;DHT22;15802;45.654;13.804;2023-06-14T00:42:29;20.40;99.90
28608;DHT22;15802;45.654;13.804;2023-06-14T00:44:55;20.40;99.90
28608;DHT22;15802;45.654;13.804;2023-06-14T00:47:20;20.40;99.90
28608;DHT22;15802;45.654;13.804;2023-06-14T00:49:47;20.30;99.90
28608;DHT22;15802;45.654;13.804;2023-06-14T00:52:14;20.40;99.90
28608;DHT22;15802;45.654;13.804;2023-06-14T00:54:40;20.30;99.90
28608;DHT22;15802;45.654;13.804;2023-06-14T00:57:06;20.30;99.90
28608;DHT22;15802;45.654;13.804;2023-06-14T00:59:32;20.30;99.90
28608;DHT22;15802;45.654;13.804;2023-06-14T01:01:58;20.40;99.90
28608;DHT22;15802;45.654;13.804;2023-06-14T01:04:24;20.40;99.90
28608;DHT22;15802;45.654;13.804;2023-06-14T01:06:58;20.50;99.90
28608;DHT22;15802;45.654;13.804;2023-06-14T01:09:37;20.50;99.90
28608;DHT22;15802;45.654;13.804;2023-06-14T01:12:08;20.50;99.90
28608;DHT22;15802;45.654;13.804;2023-06-14T01:14:35;20.50;99.90
28608;DHT22;15802;45.654;13.804;2023-06-14T01:17:04;20.50;99.90
28608;DHT22;15802;45.654;13.804;2023-06-14T01:19:30;20.40;99.90
28608;DHT22;15802;45.654;13.804;2023-06-14T01:21:59;20.40;99.90
28608;DHT22;15802;45.654;13.804;2023-06-14T01:24:25;20.40;99.90
28608;DHT22;15802;45.654;13.804;2023-06-14T01:26:57;20.40;99.90
28608;DHT22;15802;45.654;13.804;2023-06-14T01:29:23;20.40;99.90
28608;DHT22;15802;45.654;13.804;2023-06-14T01:31:50;20.40;99.90
28608;DHT22;15802;45.654;13.804;2023-06-14T01:34:16;20.40;99.90
28608;DHT22;15802;45.654;13.804;2023-06-14T01:36:43;20.40;99.90
28608;DHT22;15802;45.654;13.804;2023-06-14T01:39:10;20.40;99.90
28608;DHT22;15802;45.654;13.804;2023-06-14T01:41:37;20.30;99.90
28608;DHT22;15802;45.654;13.804;2023-06-14T01:44:03;20.40;99.90
28608;DHT22;15802;45.654;13.804;2023-06-14T01:46:30;20.30;99.90
28608;DHT22;15802;45.654;13.804;2023-06-14T01:48:56;20.30;99.90
28608;DHT22;15802;45.654;13.804;2023-06-14T01:51:21;20.30;99.90
28608;DHT22;15802;45.654;13.804;2023-06-14T01:53:47;20.20;99.90
28608;DHT22;15802;45.654;13.804;2023-06-14T01:56:14;20.20;99.90
28608;DHT22;15802;45.654;13.804;2023-06-14T01:58:40;20.20;99.90
28608;DHT22;15802;45.654;13.804;2023-06-14T02:01:05;20.20;99.90
28608;DHT22;15802;45.654;13.804;2023-06-14T02:03:32;20.30;99.90
28608;DHT22;15802;45.654;13.804;2023-06-14T02:05:58;20.30;99.90
28608;DHT22;15802;45.654;13.804;2023-06-14T02:08:24;20.20;99.90
28608;DHT22;15802;45.654;13.804;2023-06-14T02:10:50;20.20;99.90
28608;DHT22;15802;45.654;13.804;2023-06-14T02:13:15;20.20;99.90
28608;DHT22;15802;45.654;13.804;2023-06-14T02:15:41;20.20;99.90
28608;DHT22;15802;45.654;13.804;2023-06-14T02:18:09;20.20;99.90
28608;DHT22;15802;45.654;13.804;2023-06-14T02:20:35;20.20;99.90
28608;DHT22;15802;45.654;13.804;2023-06-14T02:23:01;20.20;99.90
28608;DHT22;15802;45.654;13.804;2023-06-14T02:25:27;20.20;99.90
28608;DHT22;15802;45.654;13.804;2023-06-14T02:27:53;20.20;99.90
28608;DHT22;15802;45.654;13.804;2023-06-14T02:30:20;20.20;99.90
28608;DHT22;15802;45.654;13.804;2023-06-14T02:32:46;20.20;99.90
28608;DHT22;15802;45.654;13.804;2023-06-14T02:35:13;20.10;99.90
28608;DHT22;15802;45.654;13.804;2023-06-14T02:37:39;20.10;99.90
28608;DHT22;15802;45.654;13.804;2023-06-14T02:40:05;20.10;99.90
28608;DHT22;15802;45.654;13.804;2023-06-14T02:42:31;20.00;99.90
28608;DHT22;15802;45.654;13.804;2023-06-14T02:44:57;20.00;99.90
28608;DHT22;15802;45.654;13.804;2023-06-14T02:47:23;20.00;99.90
28608;DHT22;15802;45.654;13.804;2023-06-14T02:49:50;20.00;99.90
28608;DHT22;15802;45.654;13.804;2023-06-14T02:52:15;20.00;99.90
28608;DHT22;15802;45.654;13.804;2023-06-14T02:54:41;20.00;99.90
28608;DHT22;15802;45.654;13.804;2023-06-14T02:57:07;20.10;99.90
28608;DHT22;15802;45.654;13.804;2023-06-14T02:59:33;20.00;99.90
28608;DHT22;15802;45.654;13.804;2023-06-14T03:01:59;20.00;99.90
28608;DHT22;15802;45.654;13.804;2023-06-14T03:04:25;20.00;99.90
28608;DHT22;15802;45.654;13.804;2023-06-14T03:06:52;20.00;99.90
28608;DHT22;15802;45.654;13.804;2023-06-14T03:09:19;20.10;99.90
28608;DHT22;15802;45.654;13.804;2023-06-14T03:11:45;20.00;99.90
28608;DHT22;15802;45.654;13.804;2023-06-14T03:14:10;20.00;99.90
28608;DHT22;15802;45.654;13.804;2023-06-14T03:16:36;20.00;99.90
28608;DHT22;15802;45.654;13.804;2023-06-14T03:19:02;20.00;99.90
28608;DHT22;15802;45.654;13.804;2023-06-14T03:21:28;20.00;99.90
28608;DHT22;15802;45.654;13.804;2023-06-14T03:23:54;20.00;99.90
28608;DHT22;15802;45.654;13.804;2023-06-14T03:26:21;20.00;99.90
28608;DHT22;15802;45.654;13.804;2023-06-14T03:28:47;19.90;99.90
28608;DHT22;15802;45.654;13.804;2023-06-14T03:31:15;20.00;99.90
28608;DHT22;15802;45.654;13.804;2023-06-14T03:33:41;20.00;99.90
28608;DHT22;15802;45.654;13.804;2023-06-14T03:36:07;20.00;99.90
28608;DHT22;15802;45.654;13.804;2023-06-14T03:38:32;20.00;99.90
28608;DHT22;15802;45.654;13.804;2023-06-14T03:40:58;20.00;99.90
28608;DHT22;15802;45.654;13.804;2023-06-14T03:43:24;20.00;99.90
28608;DHT22;15802;45.654;13.804;2023-06-14T03:45:50;20.00;99.90
28608;DHT22;15802;45.654;13.804;2023-06-14T03:48:16;20.00;99.90
28608;DHT22;15802;45.654;13.804;2023-06-14T03:50:41;19.90;99.90
28608;DHT22;15802;45.654;13.804;2023-06-14T03:53:08;20.00;99.90
28608;DHT22;15802;45.654;13.804;2023-06-14T03:55:36;20.00;99.90
28608;DHT22;15802;45.654;13.804;2023-06-14T03:58:03;20.00;99.90
28608;DHT22;15802;45.654;13.804;2023-06-14T04:00:29;20.10;99.90
28608;DHT22;15802;45.654;13.804;2023-06-14T04:02:57;20.10;99.90
28608;DHT22;15802;45.654;13.804;2023-06-14T04:05:23;20.10;99.90
28608;DHT22;15802;45.654;13.804;2023-06-14T04:07:51;20.00;99.90
28608;DHT22;15802;45.654;13.804;2023-06-14T04:10:17;20.00;99.90
28608;DHT22;15802;45.654;13.804;2023-06-14T04:12:43;20.00;99.90
28608;DHT22;15802;45.654;13.804;2023-06-14T04:15:09;20.00;99.90
28608;DHT22;15802;45.654;13.804;2023-06-14T04:17:35;20.00;99.90
28608;DHT22;15802;45.654;13.804;2023-06-14T04:20:03;19.90;99.90
28608;DHT22;15802;45.654;13.804;2023-06-14T04:22:32;19.90;99.90
28608;DHT22;15802;45.654;13.804;2023-06-14T04:24:58;19.90;99.90
28608;DHT22;15802;45.654;13.804;2023-06-14T04:27:25;20.00;99.90
28608;DHT22;15802;45.654;13.804;2023-06-14T04:29:52;20.00;99.90
28608;DHT22;15802;45.654;13.804;2023-06-14T04:32:23;20.10;99.90
28608;DHT22;15802;45.654;13.804;2023-06-14T04:34:51;20.20;99.90
28608;DHT22;15802;45.654;13.804;2023-06-14T04:37:19;20.20;99.90
28608;DHT22;15802;45.654;13.804;2023-06-14T04:39:46;20.20;99.90
28608;DHT22;15802;45.654;13.804;2023-06-14T04:42:12;20.20;99.90
28608;DHT22;15802;45.654;13.804;2023-06-14T04:44:41;20.20;99.90
28608;DHT22;15802;45.654;13.804;2023-06-14T04:47:07;20.30;99.90
28608;DHT22;15802;45.654;13.804;2023-06-14T04:49:32;20.30;99.90
28608;DHT22;15802;45.654;13.804;2023-06-14T04:51:59;20.30;99.90
28608;DHT22;15802;45.654;13.804;2023-06-14T04:54:26;20.50;99.90
28608;DHT22;15802;45.654;13.804;2023-06-14T04:56:52;20.50;99.90
28608;DHT22;15802;45.654;13.804;2023-06-14T04:59:20;20.60;99.90
28608;DHT22;15802;45.654;13.804;2023-06-14T05:01:49;20.60;99.90
28608;DHT22;15802;45.654;13.804;2023-06-14T05:04:15;20.70;99.90
28608;DHT22;15802;45.654;13.804;2023-06-14T05:06:42;20.80;99.90
28608;DHT22;15802;45.654;13.804;2023-06-14T05:09:11;20.90;99.90
28608;DHT22;15802;45.654;13.804;2023-06-14T05:11:37;21.00;99.90
28608;DHT22;15802;45.654;13.804;2023-06-14T05:14:03;21.10;99.90
28608;DHT22;15802;45.654;13.804;2023-06-14T05:16:28;21.10;99.90
28608;DHT22;15802;45.654;13.804;2023-06-14T05:18:54;21.20;99.90
28608;DHT22;15802;45.654;13.804;2023-06-14T05:21:20;21.10;99.90
28608;DHT22;15802;45.654;13.804;2023-06-14T05:23:46;21.20;99.90
28608;DHT22;15802;45.654;13.804;2023-06-14T05:26:12;21.20;99.90
28608;DHT22;15802;45.654;13.804;2023-06-14T05:28:37;21.30;99.90
28608;DHT22;15802;45.654;13.804;2023-06-14T05:31:03;21.30;99.90
28608;DHT22;15802;45.654;13.804;2023-06-14T05:33:29;21.30;99.90
28608;DHT22;15802;45.654;13.804;2023-06-14T05:35:54;21.30;99.90
28608;DHT22;15802;45.654;13.804;2023-06-14T05:38:21;21.40;99.90
28608;DHT22;15802;45.654;13.804;2023-06-14T05:40:46;21.30;99.90
28608;DHT22;15802;45.654;13.804;2023-06-14T05:43:12;21.30;99.90
28608;DHT22;15802;45.654;13.804;2023-06-14T05:45:37;21.30;99.90
28608;DHT22;15802;45.654;13.804;2023-06-14T05:48:03;21.20;99.90
28608;DHT22;15802;45.654;13.804;2023-06-14T05:50:29;21.20;99.90
28608;DHT22;15802;45.654;13.804;2023-06-14T05:52:55;21.30;99.90
28608;DHT22;15802;45.654;13.804;2023-06-14T05:55:21;21.20;99.90
28608;DHT22;15802;45.654;13.804;2023-06-14T05:57:47;21.20;99.90
28608;DHT22;15802;45.654;13.804;2023-06-14T06:00:13;21.30;99.90
28608;DHT22;15802;45.654;13.804;2023-06-14T06:02:41;21.30;99.90
28608;DHT22;15802;45.654;13.804;2023-06-14T06:05:09;21.30;99.90
28608;DHT22;15802;45.654;13.804;2023-06-14T06:07:34;21.30;99.90
28608;DHT22;15802;45.654;13.804;2023-06-14T06:10:00;21.40;99.90
28608;DHT22;15802;45.654;13.804;2023-06-14T06:12:26;21.30;99.90
28608;DHT22;15802;45.654;13.804;2023-06-14T06:14:54;21.40;99.90
28608;DHT22;15802;45.654;13.804;2023-06-14T06:17:21;21.50;99.90
28608;DHT22;15802;45.654;13.804;2023-06-14T06:19:46;21.50;99.90
28608;DHT22;15802;45.654;13.804;2023-06-14T06:22:12;21.60;99.90
28608;DHT22;15802;45.654;13.804;2023-06-14T06:24:38;21.70;99.90
28608;DHT22;15802;45.654;13.804;2023-06-14T06:27:03;21.70;99.90
28608;DHT22;15802;45.654;13.804;2023-06-14T06:29:29;21.80;99.90
28608;DHT22;15802;45.654;13.804;2023-06-14T06:32:00;21.80;99.90
28608;DHT22;15802;45.654;13.804;2023-06-14T06:40:46;21.80;99.90
28608;DHT22;15802;45.654;13.804;2023-06-14T06:43:35;21.80;99.90
28608;DHT22;15802;45.654;13.804;2023-06-14T06:46:00;21.70;99.90
28608;DHT22;15802;45.654;13.804;2023-06-14T06:48:28;21.70;99.90
28608;DHT22;15802;45.654;13.804;2023-06-14T06:50:54;21.80;99.90
28608;DHT22;15802;45.654;13.804;2023-06-14T06:53:23;21.80;99.90
28608;DHT22;15802;45.654;13.804;2023-06-14T06:56:27;21.80;99.90
28608;DHT22;15802;45.654;13.804;2023-06-14T06:58:43;21.90;99.90
28608;DHT22;15802;45.654;13.804;2023-06-14T07:01:17;22.10;99.90
28608;DHT22;15802;45.654;13.804;2023-06-14T07:03:47;22.40;99.90
28608;DHT22;15802;45.654;13.804;2023-06-14T07:06:13;22.60;99.90
28608;DHT22;15802;45.654;13.804;2023-06-14T07:08:39;22.80;99.90
28608;DHT22;15802;45.654;13.804;2023-06-14T07:11:07;22.90;99.90
28608;DHT22;15802;45.654;13.804;2023-06-14T07:13:33;23.00;99.90
28608;DHT22;15802;45.654;13.804;2023-06-14T07:15:59;23.10;99.90
28608;DHT22;15802;45.654;13.804;2023-06-14T07:18:26;23.20;99.90
28608;DHT22;15802;45.654;13.804;2023-06-14T07:20:53;23.20;99.90
28608;DHT22;15802;45.654;13.804;2023-06-14T07:23:20;23.30;99.90
28608;DHT22;15802;45.654;13.804;2023-06-14T07:25:51;23.50;99.90
28608;DHT22;15802;45.654;13.804;2023-06-14T07:28:19;23.50;99.90
28608;DHT22;15802;45.654;13.804;2023-06-14T07:30:50;23.60;99.90
28608;DHT22;15802;45.654;13.804;2023-06-14T07:33:16;23.60;99.90
28608;DHT22;15802;45.654;13.804;2023-06-14T07:35:42;23.70;99.90
28608;DHT22;15802;45.654;13.804;2023-06-14T07:38:11;23.80;99.90
28608;DHT22;15802;45.654;13.804;2023-06-14T07:40:37;23.80;99.90
28608;DHT22;15802;45.654;13.804;2023-06-14T07:43:03;23.90;99.90
28608;DHT22;15802;45.654;13.804;2023-06-14T07:45:28;24.10;99.90
28608;DHT22;15802;45.654;13.804;2023-06-14T07:47:54;24.20;99.90
28608;DHT22;15802;45.654;13.804;2023-06-14T07:50:20;24.10;99.90
28608;DHT22;15802;45.654;13.804;2023-06-14T07:52:46;24.00;99.90
28608;DHT22;15802;45.654;13.804;2023-06-14T07:55:13;24.10;99.90
28608;DHT22;15802;45.654;13.804;2023-06-14T07:57:39;24.00;99.90
28608;DHT22;15802;45.654;13.804;2023-06-14T08:00:09;24.00;99.90
28608;DHT22;15802;45.654;13.804;2023-06-14T08:02:41;24.10;99.90
28608;DHT22;15802;45.654;13.804;2023-06-14T08:05:09;24.20;99.90
28608;DHT22;15802;45.654;13.804;2023-06-14T08:07:36;24.30;99.90
28608;DHT22;15802;45.654;13.804;2023-06-14T08:10:01;24.30;99.90
28608;DHT22;15802;45.654;13.804;2023-06-14T08:12:27;24.30;99.90
28608;DHT22;15802;45.654;13.804;2023-06-14T08:14:53;24.40;99.90
28608;DHT22;15802;45.654;13.804;2023-06-14T08:17:18;24.60;99.90
28608;DHT22;15802;45.654;13.804;2023-06-14T08:19:44;24.60;99.90
28608;DHT22;15802;45.654;13.804;2023-06-14T08:22:10;24.70;99.90
28608;DHT22;15802;45.654;13.804;2023-06-14T08:24:37;24.80;99.90
28608;DHT22;15802;45.654;13.804;2023-06-14T08:27:03;24.90;99.90
28608;DHT22;15802;45.654;13.804;2023-06-14T08:29:28;25.00;99.90
28608;DHT22;15802;45.654;13.804;2023-06-14T08:31:56;25.00;99.90
28608;DHT22;15802;45.654;13.804;2023-06-14T08:34:22;25.00;99.90
28608;DHT22;15802;45.654;13.804;2023-06-14T08:36:50;25.00;99.90
28608;DHT22;15802;45.654;13.804;2023-06-14T08:39:16;24.90;99.90
28608;DHT22;15802;45.654;13.804;2023-06-14T08:41:47;24.70;99.90
28608;DHT22;15802;45.654;13.804;2023-06-14T08:44:16;24.60;99.90
28608;DHT22;15802;45.654;13.804;2023-06-14T08:46:42;24.80;99.90
28608;DHT22;15802;45.654;13.804;2023-06-14T08:49:10;25.00;99.90
28608;DHT22;15802;45.654;13.804;2023-06-14T08:51:36;25.20;99.90
28608;DHT22;15802;45.654;13.804;2023-06-14T08:54:03;25.50;99.90
28608;DHT22;15802;45.654;13.804;2023-06-14T08:56:29;25.50;99.90
28608;DHT22;15802;45.654;13.804;2023-06-14T08:58:56;25.60;99.90
28608;DHT22;15802;45.654;13.804;2023-06-14T09:01:23;25.80;99.90
28608;DHT22;15802;45.654;13.804;2023-06-14T09:03:49;25.80;99.90
28608;DHT22;15802;45.654;13.804;2023-06-14T09:06:15;25.80;99.90
28608;DHT22;15802;45.654;13.804;2023-06-14T09:08:44;25.80;99.90
28608;DHT22;15802;45.654;13.804;2023-06-14T09:11:11;25.80;99.90
28608;DHT22;15802;45.654;13.804;2023-06-14T09:13:37;25.60;99.90
28608;DHT22;15802;45.654;13.804;2023-06-14T09:16:09;25.50;99.90
28608;DHT22;15802;45.654;13.804;2023-06-14T09:18:39;25.40;99.90
28608;DHT22;15802;45.654;13.804;2023-06-14T09:21:11;25.30;99.90
28608;DHT22;15802;45.654;13.804;2023-06-14T09:23:38;25.20;99.90
28608;DHT22;15802;45.654;13.804;2023-06-14T09:26:06;25.30;99.90
28608;DHT22;15802;45.654;13.804;2023-06-14T09:28:34;25.30;99.90
28608;DHT22;15802;45.654;13.804;2023-06-14T09:31:00;25.40;99.90
28608;DHT22;15802;45.654;13.804;2023-06-14T09:36:36;25.60;99.90
28608;DHT22;15802;45.654;13.804;2023-06-14T09:39:03;25.50;99.90
28608;DHT22;15802;45.654;13.804;2023-06-14T09:41:34;25.50;99.90
28608;DHT22;15802;45.654;13.804;2023-06-14T09:44:00;25.60;99.90
28608;DHT22;15802;45.654;13.804;2023-06-14T09:46:28;25.60;99.90
28608;DHT22;15802;45.654;13.804;2023-06-14T09:48:55;25.70;99.90
28608;DHT22;15802;45.654;13.804;2023-06-14T09:51:23;25.80;99.90
28608;DHT22;15802;45.654;13.804;2023-06-14T09:53:48;26.00;99.90
28608;DHT22;15802;45.654;13.804;2023-06-14T09:56:17;25.90;99.90
28608;DHT22;15802;45.654;13.804;2023-06-14T09:58:47;25.80;99.90
28608;DHT22;15802;45.654;13.804;2023-06-14T10:01:17;25.60;99.90
28608;DHT22;15802;45.654;13.804;2023-06-14T10:03:46;25.60;99.90
28608;DHT22;15802;45.654;13.804;2023-06-14T10:06:14;25.60;99.90
28608;DHT22;15802;45.654;13.804;2023-06-14T10:08:40;25.70;99.90
28608;DHT22;15802;45.654;13.804;2023-06-14T10:11:06;25.80;99.90
28608;DHT22;15802;45.654;13.804;2023-06-14T10:13:32;25.70;99.90
28608;DHT22;15802;45.654;13.804;2023-06-14T10:16:05;25.60;99.90
28608;DHT22;15802;45.654;13.804;2023-06-14T10:18:35;25.70;99.90
28608;DHT22;15802;45.654;13.804;2023-06-14T10:21:15;25.90;99.90
28608;DHT22;15802;45.654;13.804;2023-06-14T10:23:42;26.00;99.90
28608;DHT22;15802;45.654;13.804;2023-06-14T10:26:16;25.90;99.90
28608;DHT22;15802;45.654;13.804;2023-06-14T10:28:53;25.80;99.90
28608;DHT22;15802;45.654;13.804;2023-06-14T10:31:20;26.00;99.90
28608;DHT22;15802;45.654;13.804;2023-06-14T10:33:50;26.10;99.90
28608;DHT22;15802;45.654;13.804;2023-06-14T10:36:31;26.10;99.90
28608;DHT22;15802;45.654;13.804;2023-06-14T10:39:01;26.30;99.90
28608;DHT22;15802;45.654;13.804;2023-06-14T10:41:29;26.30;99.90
28608;DHT22;15802;45.654;13.804;2023-06-14T10:44:30;26.20;99.90
28608;DHT22;15802;45.654;13.804;2023-06-14T10:46:58;26.30;99.90
28608;DHT22;15802;45.654;13.804;2023-06-14T10:49:41;26.20;99.90
28608;DHT22;15802;45.654;13.804;2023-06-14T10:52:08;26.10;99.90
28608;DHT22;15802;45.654;13.804;2023-06-14T10:54:37;25.80;99.90
28608;DHT22;15802;45.654;13.804;2023-06-14T10:57:03;25.70;99.90
28608;DHT22;15802;45.654;13.804;2023-06-14T10:59:32;25.70;99.90
28608;DHT22;15802;45.654;13.804;2023-06-14T11:02:20;25.80;99.90
28608;DHT22;15802;45.654;13.804;2023-06-14T11:04:52;25.90;99.90
28608;DHT22;15802;45.654;13.804;2023-06-14T11:07:30;26.00;99.90
28608;DHT22;15802;45.654;13.804;2023-06-14T11:10:05;26.00;99.90
28608;DHT22;15802;45.654;13.804;2023-06-14T11:12:35;25.90;99.90
28608;DHT22;15802;45.654;13.804;2023-06-14T11:15:02;25.90;99.90
28608;DHT22;15802;45.654;13.804;2023-06-14T11:17:28;25.90;99.90
28608;DHT22;15802;45.654;13.804;2023-06-14T11:20:11;25.90;99.90
28608;DHT22;15802;45.654;13.804;2023-06-14T11:22:41;25.90;99.90
28608;DHT22;15802;45.654;13.804;2023-06-14T11:25:10;25.70;99.90
28608;DHT22;15802;45.654;13.804;2023-06-14T11:27:36;25.80;99.90
28608;DHT22;15802;45.654;13.804;2023-06-14T11:30:02;25.80;99.90
28608;DHT22;15802;45.654;13.804;2023-06-14T11:32:28;25.80;99.90
28608;DHT22;15802;45.654;13.804;2023-06-14T11:34:53;25.60;99.90
28608;DHT22;15802;45.654;13.804;2023-06-14T11:37:19;25.60;99.90
28608;DHT22;15802;45.654;13.804;2023-06-14T11:39:59;25.50;99.90
28608;DHT22;15802;45.654;13.804;2023-06-14T11:42:26;25.40;99.90
28608;DHT22;15802;45.654;13.804;2023-06-14T11:44:55;25.30;99.90
28608;DHT22;15802;45.654;13.804;2023-06-14T11:47:21;25.20;99.90
28608;DHT22;15802;45.654;13.804;2023-06-14T11:49:47;25.20;99.90
28608;DHT22;15802;45.654;13.804;2023-06-14T11:52:13;25.30;99.90
28608;DHT22;15802;45.654;13.804;2023-06-14T11:54:39;25.60;99.90
28608;DHT22;15802;45.654;13.804;2023-06-14T11:57:07;25.60;99.90
28608;DHT22;15802;45.654;13.804;2023-06-14T11:59:39;25.80;99.90
28608;DHT22;15802;45.654;13.804;2023-06-14T12:02:06;26.00;99.90
28608;DHT22;15802;45.654;13.804;2023-06-14T12:04:34;26.00;99.90
28608;DHT22;15802;45.654;13.804;2023-06-14T12:07:16;26.00;99.90
28608;DHT22;15802;45.654;13.804;2023-06-14T12:10:04;26.00;99.90
28608;DHT22;15802;45.654;13.804;2023-06-14T12:12:40;26.10;99.90
28608;DHT22;15802;45.654;13.804;2023-06-14T12:15:08;26.30;99.90
28608;DHT22;15802;45.654;13.804;2023-06-14T12:17:37;26.40;99.90
28608;DHT22;15802;45.654;13.804;2023-06-14T12:20:08;26.50;99.90
28608;DHT22;15802;45.654;13.804;2023-06-14T12:22:36;26.50;99.90
28608;DHT22;15802;45.654;13.804;2023-06-14T12:25:03;26.40;99.90
28608;DHT22;15802;45.654;13.804;2023-06-14T12:27:29;26.50;99.90
28608;DHT22;15802;45.654;13.804;2023-06-14T12:30:02;26.70;99.90
28608;DHT22;15802;45.654;13.804;2023-06-14T12:32:28;26.70;99.90
28608;DHT22;15802;45.654;13.804;2023-06-14T12:34:53;26.70;99.90
28608;DHT22;15802;45.654;13.804;2023-06-14T12:37:19;26.80;99.90
28608;DHT22;15802;45.654;13.804;2023-06-14T12:39:45;26.70;99.90
28608;DHT22;15802;45.654;13.804;2023-06-14T12:42:11;26.60;99.90
28608;DHT22;15802;45.654;13.804;2023-06-14T12:44:38;26.60;99.90
28608;DHT22;15802;45.654;13.804;2023-06-14T12:47:12;26.60;99.90
28608;DHT22;15802;45.654;13.804;2023-06-14T12:49:38;26.70;99.90
28608;DHT22;15802;45.654;13.804;2023-06-14T12:52:05;26.70;99.90
28608;DHT22;15802;45.654;13.804;2023-06-14T12:54:31;26.80;99.90
28608;DHT22;15802;45.654;13.804;2023-06-14T12:56:56;27.10;99.90
28608;DHT22;15802;45.654;13.804;2023-06-14T12:59:22;27.20;99.90
28608;DHT22;15802;45.654;13.804;2023-06-14T13:01:48;27.30;99.90
28608;DHT22;15802;45.654;13.804;2023-06-14T13:04:15;27.20;99.90
28608;DHT22;15802;45.654;13.804;2023-06-14T13:06:41;27.40;99.90
28608;DHT22;15802;45.654;13.804;2023-06-14T13:09:09;27.50;99.90
28608;DHT22;15802;45.654;13.804;2023-06-14T13:11:36;27.60;99.90
28608;DHT22;15802;45.654;13.804;2023-06-14T13:14:02;27.20;99.90
28608;DHT22;15802;45.654;13.804;2023-06-14T13:16:28;27.10;99.90
28608;DHT22;15802;45.654;13.804;2023-06-14T13:18:53;27.20;99.90
28608;DHT22;15802;45.654;13.804;2023-06-14T13:21:19;26.90;99.90
28608;DHT22;15802;45.654;13.804;2023-06-14T13:23:45;26.80;99.90
28608;DHT22;15802;45.654;13.804;2023-06-14T13:26:10;26.70;99.90
28608;DHT22;15802;45.654;13.804;2023-06-14T13:28:37;26.70;99.90
28608;DHT22;15802;45.654;13.804;2023-06-14T13:31:03;26.70;99.90
28608;DHT22;15802;45.654;13.804;2023-06-14T13:33:29;26.70;99.90
28608;DHT22;15802;45.654;13.804;2023-06-14T13:35:55;26.50;99.90
28608;DHT22;15802;45.654;13.804;2023-06-14T13:38:20;26.60;99.90
28608;DHT22;15802;45.654;13.804;2023-06-14T13:40:46;26.50;99.90
28608;DHT22;15802;45.654;13.804;2023-06-14T13:43:14;26.50;99.90
28608;DHT22;15802;45.654;13.804;2023-06-14T13:45:40;26.50;99.90
28608;DHT22;15802;45.654;13.804;2023-06-14T13:48:05;26.50;99.90
28608;DHT22;15802;45.654;13.804;2023-06-14T13:50:33;26.60;99.90
28608;DHT22;15802;45.654;13.804;2023-06-14T13:52:59;26.60;99.90
28608;DHT22;15802;45.654;13.804;2023-06-14T13:55:25;26.50;99.90
28608;DHT22;15802;45.654;13.804;2023-06-14T13:57:51;26.40;99.90
28608;DHT22;15802;45.654;13.804;2023-06-14T14:00:16;26.60;99.90
28608;DHT22;15802;45.654;13.804;2023-06-14T14:02:42;26.60;99.90
28608;DHT22;15802;45.654;13.804;2023-06-14T14:05:08;26.60;99.90
28608;DHT22;15802;45.654;13.804;2023-06-14T14:07:34;26.60;99.90
28608;DHT22;15802;45.654;13.804;2023-06-14T14:10:02;26.60;99.90
28608;DHT22;15802;45.654;13.804;2023-06-14T14:12:27;26.60;99.90
28608;DHT22;15802;45.654;13.804;2023-06-14T14:14:54;26.70;99.90
28608;DHT22;15802;45.654;13.804;2023-06-14T14:17:20;26.90;99.90
28608;DHT22;15802;45.654;13.804;2023-06-14T14:19:45;27.10;99.90
28608;DHT22;15802;45.654;13.804;2023-06-14T14:22:11;27.20;99.90
28608;DHT22;15802;45.654;13.804;2023-06-14T14:24:37;27.20;99.90
28608;DHT22;15802;45.654;13.804;2023-06-14T14:27:03;27.00;99.90
28608;DHT22;15802;45.654;13.804;2023-06-14T14:29:29;27.10;99.90
28608;DHT22;15802;45.654;13.804;2023-06-14T14:31:55;27.20;99.90
28608;DHT22;15802;45.654;13.804;2023-06-14T14:34:22;27.30;99.90
28608;DHT22;15802;45.654;13.804;2023-06-14T14:36:48;27.10;99.90
28608;DHT22;15802;45.654;13.804;2023-06-14T14:39:14;27.00;99.90
28608;DHT22;15802;45.654;13.804;2023-06-14T14:41:40;27.00;99.90
28608;DHT22;15802;45.654;13.804;2023-06-14T14:44:05;26.80;99.90
28608;DHT22;15802;45.654;13.804;2023-06-14T14:46:31;26.80;99.90
28608;DHT22;15802;45.654;13.804;2023-06-14T14:48:58;26.70;99.90
28608;DHT22;15802;45.654;13.804;2023-06-14T14:51:24;26.70;99.90
28608;DHT22;15802;45.654;13.804;2023-06-14T14:53:49;26.60;99.90
28608;DHT22;15802;45.654;13.804;2023-06-14T14:56:15;26.60;99.90
28608;DHT22;15802;45.654;13.804;2023-06-14T14:58:40;26.50;99.90
28608;DHT22;15802;45.654;13.804;2023-06-14T15:01:06;26.50;99.90
28608;DHT22;15802;45.654;13.804;2023-06-14T15:03:32;26.40;99.90
28608;DHT22;15802;45.654;13.804;2023-06-14T15:05:58;26.40;99.90
28608;DHT22;15802;45.654;13.804;2023-06-14T15:08:23;26.40;99.90
28608;DHT22;15802;45.654;13.804;2023-06-14T15:10:49;26.30;99.90
28608;DHT22;15802;45.654;13.804;2023-06-14T15:13:15;26.40;99.90
28608;DHT22;15802;45.654;13.804;2023-06-14T15:15:41;26.50;99.90
28608;DHT22;15802;45.654;13.804;2023-06-14T15:18:09;26.70;99.90
28608;DHT22;15802;45.654;13.804;2023-06-14T15:20:35;26.90;99.90
28608;DHT22;15802;45.654;13.804;2023-06-14T15:23:00;27.10;99.90
28608;DHT22;15802;45.654;13.804;2023-06-14T15:25:27;27.40;99.90